sensor_id;sensor_type;location;lat;lon;timestamp;temperature;humidity
59301;DHT22;45073;52.740;6.784;2023-06-10T00:02:07;20.70;61.20
59301;DHT22;45073;52.740;6.784;2023-06-10T00:04:34;20.60;61.30
59301;DHT22;45073;52.740;6.784;2023-06-10T00:07:04;20.60;61.40
59301;DHT22;45073;52.740;6.784;2023-06-10T00:09:35;20.60;61.50
59301;DHT22;45073;52.740;6.784;2023-06-10T00:12:03;20.50;61.70
59301;DHT22;45073;52.740;6.784;2023-06-10T00:14:29;20.50;61.90
59301;DHT22;45073;52.740;6.784;2023-06-10T00:16:56;20.50;62.10
59301;DHT22;45073;52.740;6.784;2023-06-10T00:19:23;20.50;62.30
59301;DHT22;45073;52.740;6.784;2023-06-10T00:21:51;20.40;62.40
59301;DHT22;45073;52.740;6.784;2023-06-10T00:24:17;20.40;62.70
59301;DHT22;45073;52.740;6.784;2023-06-10T00:26:43;20.40;63.00
59301;DHT22;45073;52.740;6.784;2023-06-10T00:29:09;20.30;63.20
59301;DHT22;45073;52.740;6.784;2023-06-10T00:31:35;20.30;63.40
59301;DHT22;45073;52.740;6.784;2023-06-10T00:34:01;20.30;63.70
59301;DHT22;45073;52.740;6.784;2023-06-10T00:36:29;20.20;63.80
59301;DHT22;45073;52.740;6.784;2023-06-10T00:38:55;20.20;63.90
59301;DHT22;45073;52.740;6.784;2023-06-10T00:41:20;20.20;64.20
59301;DHT22;45073;52.740;6.784;2023-06-10T00:43:46;20.20;64.40
59301;DHT22;45073;52.740;6.784;2023-06-10T00:46:12;20.10;64.60
59301;DHT22;45073;52.740;6.784;2023-06-10T00:48:40;20.10;64.80
59301;DHT22;45073;52.740;6.784;2023-06-10T00:51:08;20.10;65.10
59301;DHT22;45073;52.740;6.784;2023-06-10T00:53:36;20.00;65.20
59301;DHT22;45073;52.740;6.784;2023-06-10T00:56:04;20.00;65.20
59301;DHT22;45073;52.740;6.784;2023-06-10T00:58:30;20.00;65.50
59301;DHT22;45073;52.740;6.784;2023-06-10T01:00:56;20.00;66.40
59301;DHT22;45073;52.740;6.784;2023-06-10T01:03:23;20.00;65.90
59301;DHT22;45073;52.740;6.784;2023-06-10T01:06:03;19.90;66.10
59301;DHT22;45073;52.740;6.784;2023-06-10T01:11:29;19.90;66.50
59301;DHT22;45073;52.740;6.784;2023-06-10T01:13:59;19.80;66.40
59301;DHT22;45073;52.740;6.784;2023-06-10T01:16:26;19.80;66.90
59301;DHT22;45073;52.740;6.784;2023-06-10T01:18:53;19.80;67.10
59301;DHT22;45073;52.740;6.784;2023-06-10T01:21:21;19.70;67.20
59301;DHT22;45073;52.740;6.784;2023-06-10T01:23:50;19.70;67.30
59301;DHT22;45073;52.740;6.784;2023-06-10T01:26:17;19.60;67.50
59301;DHT22;45073;52.740;6.784;2023-06-10T01:28:50;19.60;67.70
59301;DHT22;45073;52.740;6.784;2023-06-10T01:31:38;19.60;67.90
59301;DHT22;45073;52.740;6.784;2023-06-10T01:34:14;19.60;68.10
59301;DHT22;45073;52.740;6.784;2023-06-10T01:36:46;19.50;68.00
59301;DHT22;45073;52.740;6.784;2023-06-10T01:39:14;19.50;68.30
59301;DHT22;45073;52.740;6.784;2023-06-10T01:41:40;19.50;68.50
59301;DHT22;45073;52.740;6.784;2023-06-10T01:44:06;19.40;68.60
59301;DHT22;45073;52.740;6.784;2023-06-10T01:46:31;19.40;68.70
59301;DHT22;45073;52.740;6.784;2023-06-10T01:48:57;19.40;68.90
59301;DHT22;45073;52.740;6.784;2023-06-10T01:51:23;19.30;68.90
59301;DHT22;45073;52.740;6.784;2023-06-10T01:53:48;19.30;69.10
59301;DHT22;45073;52.740;6.784;2023-06-10T01:56:14;19.30;69.30
59301;DHT22;45073;52.740;6.784;2023-06-10T01:58:43;19.20;69.50
59301;DHT22;45073;52.740;6.784;2023-06-10T02:01:09;19.20;69.70
59301;DHT22;45073;52.740;6.784;2023-06-10T02:03:35;19.10;70.10
59301;DHT22;45073;52.740;6.784;2023-06-10T02:06:00;19.10;70.10
59301;DHT22;45073;52.740;6.784;2023-06-10T02:08:26;19.10;70.30
59301;DHT22;45073;52.740;6.784;2023-06-10T02:10:53;19.10;70.30
59301;DHT22;45073;52.740;6.784;2023-06-10T02:13:19;19.00;70.50
59301;DHT22;45073;52.740;6.784;2023-06-10T02:15:44;19.00;70.70
59301;DHT22;45073;52.740;6.784;2023-06-10T02:18:10;19.00;71.00
59301;DHT22;45073;52.740;6.784;2023-06-10T02:20:38;18.90;71.10
59301;DHT22;45073;52.740;6.784;2023-06-10T02:23:03;18.90;71.20
59301;DHT22;45073;52.740;6.784;2023-06-10T02:25:29;18.90;71.40
59301;DHT22;45073;52.740;6.784;2023-06-10T02:27:55;18.90;71.50
59301;DHT22;45073;52.740;6.784;2023-06-10T02:30:21;18.80;71.70
59301;DHT22;45073;52.740;6.784;2023-06-10T02:32:46;18.80;71.80
59301;DHT22;45073;52.740;6.784;2023-06-10T02:35:14;18.70;71.90
59301;DHT22;45073;52.740;6.784;2023-06-10T02:37:40;18.70;72.10
59301;DHT22;45073;52.740;6.784;2023-06-10T02:40:06;18.70;73.20
59301;DHT22;45073;52.740;6.784;2023-06-10T02:42:32;18.60;72.60
59301;DHT22;45073;52.740;6.784;2023-06-10T02:44:58;18.60;72.70
59301;DHT22;45073;52.740;6.784;2023-06-10T02:47:24;18.60;72.90
59301;DHT22;45073;52.740;6.784;2023-06-10T02:49:49;18.60;73.20
59301;DHT22;45073;52.740;6.784;2023-06-10T02:52:15;18.50;73.40
59301;DHT22;45073;52.740;6.784;2023-06-10T02:54:40;18.50;73.40
59301;DHT22;45073;52.740;6.784;2023-06-10T02:57:06;18.40;73.50
59301;DHT22;45073;52.740;6.784;2023-06-10T02:59:32;18.40;73.80
59301;DHT22;45073;52.740;6.784;2023-06-10T03:01:58;18.30;74.10
59301;DHT22;45073;52.740;6.784;2023-06-10T03:04:24;18.30;74.20
59301;DHT22;45073;52.740;6.784;2023-06-10T03:06:50;18.30;74.60
59301;DHT22;45073;52.740;6.784;2023-06-10T03:09:16;18.20;74.60
59301;DHT22;45073;52.740;6.784;2023-06-10T03:11:42;18.20;74.90
59301;DHT22;45073;52.740;6.784;2023-06-10T03:14:07;18.20;74.90
59301;DHT22;45073;52.740;6.784;2023-06-10T03:16:33;18.20;75.20
59301;DHT22;45073;52.740;6.784;2023-06-10T03:18:58;18.10;75.70
59301;DHT22;45073;52.740;6.784;2023-06-10T03:21:24;18.10;76.10
59301;DHT22;45073;52.740;6.784;2023-06-10T03:23:50;18.10;75.90
59301;DHT22;45073;52.740;6.784;2023-06-10T03:26:15;18.00;76.10
59301;DHT22;45073;52.740;6.784;2023-06-10T03:28:42;18.00;76.20
59301;DHT22;45073;52.740;6.784;2023-06-10T03:31:07;18.00;76.40
59301;DHT22;45073;52.740;6.784;2023-06-10T03:33:33;18.00;77.50
59301;DHT22;45073;52.740;6.784;2023-06-10T03:35:59;17.90;77.00
59301;DHT22;45073;52.740;6.784;2023-06-10T03:38:24;17.90;77.60
59301;DHT22;45073;52.740;6.784;2023-06-10T03:40:50;17.80;77.90
59301;DHT22;45073;52.740;6.784;2023-06-10T03:43:16;17.80;78.10
59301;DHT22;45073;52.740;6.784;2023-06-10T03:45:41;17.80;78.60
59301;DHT22;45073;52.740;6.784;2023-06-10T03:48:07;17.80;78.60
59301;DHT22;45073;52.740;6.784;2023-06-10T03:50:34;17.70;78.70
59301;DHT22;45073;52.740;6.784;2023-06-10T03:53:00;17.70;79.90
59301;DHT22;45073;52.740;6.784;2023-06-10T03:55:26;17.70;80.10
59301;DHT22;45073;52.740;6.784;2023-06-10T03:57:51;17.70;80.60
59301;DHT22;45073;52.740;6.784;2023-06-10T04:00:17;17.70;81.20
59301;DHT22;45073;52.740;6.784;2023-06-10T04:02:46;17.70;81.80
59301;DHT22;45073;52.740;6.784;2023-06-10T04:05:13;17.70;82.10
59301;DHT22;45073;52.740;6.784;2023-06-10T04:07:39;17.70;82.90
59301;DHT22;45073;52.740;6.784;2023-06-10T04:10:07;17.70;83.70
59301;DHT22;45073;52.740;6.784;2023-06-10T04:12:33;17.70;84.60
59301;DHT22;45073;52.740;6.784;2023-06-10T04:14:58;17.70;84.90
59301;DHT22;45073;52.740;6.784;2023-06-10T04:17:25;17.70;85.60
59301;DHT22;45073;52.740;6.784;2023-06-10T04:19:50;17.70;86.60
59301;DHT22;45073;52.740;6.784;2023-06-10T04:22:16;17.70;87.20
59301;DHT22;45073;52.740;6.784;2023-06-10T04:24:43;17.70;88.40
59301;DHT22;45073;52.740;6.784;2023-06-10T04:27:09;17.70;89.10
59301;DHT22;45073;52.740;6.784;2023-06-10T04:29:35;17.70;88.50
59301;DHT22;45073;52.740;6.784;2023-06-10T04:32:01;17.70;90.30
59301;DHT22;45073;52.740;6.784;2023-06-10T04:34:27;17.70;90.60
59301;DHT22;45073;52.740;6.784;2023-06-10T04:36:53;17.70;90.90
59301;DHT22;45073;52.740;6.784;2023-06-10T04:39:19;17.70;91.40
59301;DHT22;45073;52.740;6.784;2023-06-10T04:41:45;17.70;91.60
59301;DHT22;45073;52.740;6.784;2023-06-10T04:44:12;17.70;92.20
59301;DHT22;45073;52.740;6.784;2023-06-10T04:46:37;17.80;92.80
59301;DHT22;45073;52.740;6.784;2023-06-10T04:49:03;17.80;92.70
59301;DHT22;45073;52.740;6.784;2023-06-10T04:51:30;17.70;93.60
59301;DHT22;45073;52.740;6.784;2023-06-10T04:53:57;17.80;93.80
59301;DHT22;45073;52.740;6.784;2023-06-10T04:56:23;17.80;94.70
59301;DHT22;45073;52.740;6.784;2023-06-10T04:58:49;17.80;95.20
59301;DHT22;45073;52.740;6.784;2023-06-10T05:01:15;17.80;95.40
59301;DHT22;45073;52.740;6.784;2023-06-10T05:03:41;17.90;95.70
59301;DHT22;45073;52.740;6.784;2023-06-10T05:06:06;17.90;96.30
59301;DHT22;45073;52.740;6.784;2023-06-10T05:08:32;17.90;96.60
59301;DHT22;45073;52.740;6.784;2023-06-10T05:10:58;17.90;96.70
59301;DHT22;45073;52.740;6.784;2023-06-10T05:13:24;17.90;97.10
59301;DHT22;45073;52.740;6.784;2023-06-10T05:15:49;17.90;96.30
59301;DHT22;45073;52.740;6.784;2023-06-10T05:18:15;17.90;97.80
59301;DHT22;45073;52.740;6.784;2023-06-10T05:20:41;18.00;98.50
59301;DHT22;45073;52.740;6.784;2023-06-10T05:23:06;18.00;98.20
59301;DHT22;45073;52.740;6.784;2023-06-10T05:25:32;18.00;98.30
59301;DHT22;45073;52.740;6.784;2023-06-10T05:27:58;18.10;98.90
59301;DHT22;45073;52.740;6.784;2023-06-10T05:30:24;18.00;97.90
59301;DHT22;45073;52.740;6.784;2023-06-10T05:32:51;18.10;99.40
59301;DHT22;45073;52.740;6.784;2023-06-10T05:35:16;18.20;99.00
59301;DHT22;45073;52.740;6.784;2023-06-10T05:37:42;18.20;99.40
59301;DHT22;45073;52.740;6.784;2023-06-10T05:40:08;18.30;99.80
59301;DHT22;45073;52.740;6.784;2023-06-10T05:42:34;18.30;99.80
59301;DHT22;45073;52.740;6.784;2023-06-10T05:44:59;18.30;99.20
59301;DHT22;45073;52.740;6.784;2023-06-10T05:47:25;18.40;99.30
59301;DHT22;45073;52.740;6.784;2023-06-10T05:49:51;18.40;99.20
59301;DHT22;45073;52.740;6.784;2023-06-10T05:52:17;18.40;99.00
59301;DHT22;45073;52.740;6.784;2023-06-10T05:54:43;18.50;99.00
59301;DHT22;45073;52.740;6.784;2023-06-10T05:57:09;18.50;98.90
59301;DHT22;45073;52.740;6.784;2023-06-10T05:59:35;18.60;98.70
59301;DHT22;45073;52.740;6.784;2023-06-10T06:02:01;18.60;98.80
59301;DHT22;45073;52.740;6.784;2023-06-10T06:04:26;18.70;98.40
59301;DHT22;45073;52.740;6.784;2023-06-10T06:06:52;18.70;98.70
59301;DHT22;45073;52.740;6.784;2023-06-10T06:09:18;18.80;98.50
59301;DHT22;45073;52.740;6.784;2023-06-10T06:11:43;18.80;98.60
59301;DHT22;45073;52.740;6.784;2023-06-10T06:14:09;18.80;98.40
59301;DHT22;45073;52.740;6.784;2023-06-10T06:16:35;18.90;98.20
59301;DHT22;45073;52.740;6.784;2023-06-10T06:19:00;18.90;97.90
59301;DHT22;45073;52.740;6.784;2023-06-10T06:21:26;19.00;98.00
59301;DHT22;45073;52.740;6.784;2023-06-10T06:23:51;19.00;98.30
59301;DHT22;45073;52.740;6.784;2023-06-10T06:26:17;19.10;97.90
59301;DHT22;45073;52.740;6.784;2023-06-10T06:28:43;19.10;98.50
59301;DHT22;45073;52.740;6.784;2023-06-10T06:31:08;19.20;98.70
59301;DHT22;45073;52.740;6.784;2023-06-10T06:33:34;19.30;98.40
59301;DHT22;45073;52.740;6.784;2023-06-10T06:35:59;19.40;98.10
59301;DHT22;45073;52.740;6.784;2023-06-10T06:38:26;19.40;96.70
59301;DHT22;45073;52.740;6.784;2023-06-10T06:40:52;19.50;96.20
59301;DHT22;45073;52.740;6.784;2023-06-10T06:43:17;19.50;96.40
59301;DHT22;45073;52.740;6.784;2023-06-10T06:45:44;19.50;97.00
59301;DHT22;45073;52.740;6.784;2023-06-10T06:48:11;19.60;95.90
59301;DHT22;45073;52.740;6.784;2023-06-10T06:50:37;19.70;95.40
59301;DHT22;45073;52.740;6.784;2023-06-10T06:53:04;19.70;95.00
59301;DHT22;45073;52.740;6.784;2023-06-10T06:55:29;19.70;95.20
59301;DHT22;45073;52.740;6.784;2023-06-10T06:57:55;19.80;94.70
59301;DHT22;45073;52.740;6.784;2023-06-10T07:00:21;19.90;94.50
59301;DHT22;45073;52.740;6.784;2023-06-10T07:02:47;20.00;93.80
59301;DHT22;45073;52.740;6.784;2023-06-10T07:05:12;20.00;93.90
59301;DHT22;45073;52.740;6.784;2023-06-10T07:07:38;20.10;93.90
59301;DHT22;45073;52.740;6.784;2023-06-10T07:10:04;20.20;93.80
59301;DHT22;45073;52.740;6.784;2023-06-10T07:12:30;20.20;93.60
59301;DHT22;45073;52.740;6.784;2023-06-10T07:14:55;20.30;93.30
59301;DHT22;45073;52.740;6.784;2023-06-10T07:17:21;20.40;93.30
59301;DHT22;45073;52.740;6.784;2023-06-10T07:19:46;20.40;93.30
59301;DHT22;45073;52.740;6.784;2023-06-10T07:22:12;20.50;93.10
59301;DHT22;45073;52.740;6.784;2023-06-10T07:24:38;20.60;92.70
59301;DHT22;45073;52.740;6.784;2023-06-10T07:27:03;20.60;92.10
59301;DHT22;45073;52.740;6.784;2023-06-10T07:29:29;20.60;91.80
59301;DHT22;45073;52.740;6.784;2023-06-10T07:31:55;20.70;91.70
59301;DHT22;45073;52.740;6.784;2023-06-10T07:34:20;20.80;91.40
59301;DHT22;45073;52.740;6.784;2023-06-10T07:36:46;20.80;91.70
59301;DHT22;45073;52.740;6.784;2023-06-10T07:39:11;20.90;91.30
59301;DHT22;45073;52.740;6.784;2023-06-10T07:41:37;20.90;90.80
59301;DHT22;45073;52.740;6.784;2023-06-10T07:44:03;21.00;90.90
59301;DHT22;45073;52.740;6.784;2023-06-10T07:46:28;21.10;90.90
59301;DHT22;45073;52.740;6.784;2023-06-10T07:48:54;21.20;91.20
59301;DHT22;45073;52.740;6.784;2023-06-10T07:51:21;21.30;90.90
59301;DHT22;45073;52.740;6.784;2023-06-10T07:53:47;21.40;90.20
59301;DHT22;45073;52.740;6.784;2023-06-10T07:56:12;21.40;88.80
59301;DHT22;45073;52.740;6.784;2023-06-10T07:58:38;21.40;88.30
59301;DHT22;45073;52.740;6.784;2023-06-10T08:01:04;21.50;88.10
59301;DHT22;45073;52.740;6.784;2023-06-10T08:03:29;21.60;87.40
59301;DHT22;45073;52.740;6.784;2023-06-10T08:05:55;21.60;86.40
59301;DHT22;45073;52.740;6.784;2023-06-10T08:08:21;21.70;88.30
59301;DHT22;45073;52.740;6.784;2023-06-10T08:10:46;21.80;89.60
59301;DHT22;45073;52.740;6.784;2023-06-10T08:13:12;21.90;89.80
59301;DHT22;45073;52.740;6.784;2023-06-10T08:15:37;22.00;88.80
59301;DHT22;45073;52.740;6.784;2023-06-10T08:18:03;22.00;88.60
59301;DHT22;45073;52.740;6.784;2023-06-10T08:20:29;22.10;88.80
59301;DHT22;45073;52.740;6.784;2023-06-10T08:22:55;22.20;89.30
59301;DHT22;45073;52.740;6.784;2023-06-10T08:25:20;22.30;88.30
59301;DHT22;45073;52.740;6.784;2023-06-10T08:27:47;22.30;86.20
59301;DHT22;45073;52.740;6.784;2023-06-10T08:30:13;22.40;83.30
59301;DHT22;45073;52.740;6.784;2023-06-10T08:32:39;22.40;81.40
59301;DHT22;45073;52.740;6.784;2023-06-10T08:35:05;22.40;81.10
59301;DHT22;45073;52.740;6.784;2023-06-10T08:37:31;22.50;82.30
59301;DHT22;45073;52.740;6.784;2023-06-10T08:39:56;22.60;81.40
59301;DHT22;45073;52.740;6.784;2023-06-10T08:45:02;22.70;78.40
59301;DHT22;45073;52.740;6.784;2023-06-10T08:47:29;22.70;77.50
59301;DHT22;45073;52.740;6.784;2023-06-10T08:49:57;22.70;78.10
59301;DHT22;45073;52.740;6.784;2023-06-10T08:52:29;22.80;76.80
59301;DHT22;45073;52.740;6.784;2023-06-10T08:55:12;22.80;76.60
59301;DHT22;45073;52.740;6.784;2023-06-10T08:57:41;22.90;75.30
59301;DHT22;45073;52.740;6.784;2023-06-10T09:00:07;23.00;75.40
59301;DHT22;45073;52.740;6.784;2023-06-10T09:02:33;23.00;74.60
59301;DHT22;45073;52.740;6.784;2023-06-10T09:05:02;23.10;74.50
59301;DHT22;45073;52.740;6.784;2023-06-10T09:07:28;23.20;74.50
59301;DHT22;45073;52.740;6.784;2023-06-10T09:09:57;23.20;73.70
59301;DHT22;45073;52.740;6.784;2023-06-10T09:12:24;23.30;73.20
59301;DHT22;45073;52.740;6.784;2023-06-10T09:14:50;23.40;72.50
59301;DHT22;45073;52.740;6.784;2023-06-10T09:17:17;23.40;71.80
59301;DHT22;45073;52.740;6.784;2023-06-10T09:19:44;23.50;70.20
59301;DHT22;45073;52.740;6.784;2023-06-10T09:22:10;23.50;69.30
59301;DHT22;45073;52.740;6.784;2023-06-10T09:24:36;23.60;69.50
59301;DHT22;45073;52.740;6.784;2023-06-10T09:27:06;23.70;69.70
59301;DHT22;45073;52.740;6.784;2023-06-10T09:30:02;23.80;69.20
59301;DHT22;45073;52.740;6.784;2023-06-10T09:32:28;23.90;68.80
59301;DHT22;45073;52.740;6.784;2023-06-10T09:34:55;23.90;67.90
59301;DHT22;45073;52.740;6.784;2023-06-10T09:37:24;24.00;68.10
59301;DHT22;45073;52.740;6.784;2023-06-10T09:40:07;24.10;68.80
59301;DHT22;45073;52.740;6.784;2023-06-10T09:42:34;24.20;69.00
59301;DHT22;45073;52.740;6.784;2023-06-10T09:45:02;24.30;69.10
59301;DHT22;45073;52.740;6.784;2023-06-10T09:47:27;24.40;68.90
59301;DHT22;45073;52.740;6.784;2023-06-10T09:49:53;24.50;67.90
59301;DHT22;45073;52.740;6.784;2023-06-10T09:52:23;24.60;67.00
59301;DHT22;45073;52.740;6.784;2023-06-10T09:54:54;24.60;66.20
59301;DHT22;45073;52.740;6.784;2023-06-10T09:57:23;24.70;65.90
59301;DHT22;45073;52.740;6.784;2023-06-10T09:59:53;24.80;65.10
59301;DHT22;45073;52.740;6.784;2023-06-10T10:02:19;24.80;64.50
59301;DHT22;45073;52.740;6.784;2023-06-10T10:04:45;24.90;64.40
59301;DHT22;45073;52.740;6.784;2023-06-10T10:07:11;24.90;63.50
59301;DHT22;45073;52.740;6.784;2023-06-10T10:09:41;25.00;62.50
59301;DHT22;45073;52.740;6.784;2023-06-10T10:12:14;25.10;61.80
59301;DHT22;45073;52.740;6.784;2023-06-10T10:14:46;25.10;62.40
59301;DHT22;45073;52.740;6.784;2023-06-10T10:17:14;25.20;63.40
59301;DHT22;45073;52.740;6.784;2023-06-10T10:19:48;25.20;62.00
59301;DHT22;45073;52.740;6.784;2023-06-10T10:22:25;25.30;61.20
59301;DHT22;45073;52.740;6.784;2023-06-10T10:24:56;25.40;60.50
59301;DHT22;45073;52.740;6.784;2023-06-10T10:27:35;25.50;60.30
59301;DHT22;45073;52.740;6.784;2023-06-10T10:30:02;25.60;60.50
59301;DHT22;45073;52.740;6.784;2023-06-10T10:32:46;25.60;60.10
59301;DHT22;45073;52.740;6.784;2023-06-10T10:35:19;25.70;60.60
59301;DHT22;45073;52.740;6.784;2023-06-10T10:37:47;25.80;59.70
59301;DHT22;45073;52.740;6.784;2023-06-10T10:40:13;25.90;58.70
59301;DHT22;45073;52.740;6.784;2023-06-10T10:42:40;26.00;59.00
59301;DHT22;45073;52.740;6.784;2023-06-10T10:45:07;26.10;58.80
59301;DHT22;45073;52.740;6.784;2023-06-10T10:47:34;26.20;57.70
59301;DHT22;45073;52.740;6.784;2023-06-10T10:50:01;26.30;56.20
59301;DHT22;45073;52.740;6.784;2023-06-10T10:52:56;26.30;56.10
59301;DHT22;45073;52.740;6.784;2023-06-10T10:55:26;26.50;56.20
59301;DHT22;45073;52.740;6.784;2023-06-10T10:57:59;26.50;55.40
59301;DHT22;45073;52.740;6.784;2023-06-10T11:00:34;26.60;54.00
59301;DHT22;45073;52.740;6.784;2023-06-10T11:05:48;26.70;54.00
59301;DHT22;45073;52.740;6.784;2023-06-10T11:10:58;26.90;53.10
59301;DHT22;45073;52.740;6.784;2023-06-10T11:13:25;27.00;52.20
59301;DHT22;45073;52.740;6.784;2023-06-10T11:15:51;27.20;52.10
59301;DHT22;45073;52.740;6.784;2023-06-10T11:18:30;27.20;52.30
59301;DHT22;45073;52.740;6.784;2023-06-10T11:21:04;27.40;51.30
59301;DHT22;45073;52.740;6.784;2023-06-10T11:23:32;27.50;51.60
59301;DHT22;45073;52.740;6.784;2023-06-10T11:31:20;27.70;51.50
59301;DHT22;45073;52.740;6.784;2023-06-10T11:33:54;27.90;50.10
59301;DHT22;45073;52.740;6.784;2023-06-10T11:36:20;28.00;49.20
59301;DHT22;45073;52.740;6.784;2023-06-10T11:38:46;28.10;49.70
59301;DHT22;45073;52.740;6.784;2023-06-10T11:41:14;28.20;49.20
59301;DHT22;45073;52.740;6.784;2023-06-10T11:43:46;28.30;48.70
59301;DHT22;45073;52.740;6.784;2023-06-10T11:46:12;28.30;47.50
59301;DHT22;45073;52.740;6.784;2023-06-10T11:48:38;28.40;46.80
59301;DHT22;45073;52.740;6.784;2023-06-10T11:51:07;28.50;46.20
59301;DHT22;45073;52.740;6.784;2023-06-10T11:53:33;28.60;45.70
59301;DHT22;45073;52.740;6.784;2023-06-10T11:55:59;28.70;46.00
59301;DHT22;45073;52.740;6.784;2023-06-10T11:58:24;28.70;45.40
59301;DHT22;45073;52.740;6.784;2023-06-10T12:00:54;28.80;44.60
59301;DHT22;45073;52.740;6.784;2023-06-10T12:03:21;28.90;45.60
59301;DHT22;45073;52.740;6.784;2023-06-10T12:05:56;29.00;46.30
59301;DHT22;45073;52.740;6.784;2023-06-10T12:08:23;29.10;45.80
59301;DHT22;45073;52.740;6.784;2023-06-10T12:10:49;29.20;44.80
59301;DHT22;45073;52.740;6.784;2023-06-10T12:13:15;29.30;44.00
59301;DHT22;45073;52.740;6.784;2023-06-10T12:15:41;29.40;43.40
59301;DHT22;45073;52.740;6.784;2023-06-10T12:18:07;29.50;42.50
59301;DHT22;45073;52.740;6.784;2023-06-10T12:20:33;29.50;41.20
59301;DHT22;45073;52.740;6.784;2023-06-10T12:23:09;29.50;40.70
59301;DHT22;45073;52.740;6.784;2023-06-10T12:25:34;29.60;41.90
59301;DHT22;45073;52.740;6.784;2023-06-10T12:28:02;29.60;41.60
59301;DHT22;45073;52.740;6.784;2023-06-10T12:30:28;29.70;40.40
59301;DHT22;45073;52.740;6.784;2023-06-10T12:32:55;29.80;40.60
59301;DHT22;45073;52.740;6.784;2023-06-10T12:35:23;29.80;39.50
59301;DHT22;45073;52.740;6.784;2023-06-10T12:38:04;29.80;40.40
59301;DHT22;45073;52.740;6.784;2023-06-10T12:40:32;29.80;40.40
59301;DHT22;45073;52.740;6.784;2023-06-10T12:42:59;29.80;41.70
59301;DHT22;45073;52.740;6.784;2023-06-10T12:45:38;29.90;40.70
59301;DHT22;45073;52.740;6.784;2023-06-10T12:48:17;30.00;40.50
59301;DHT22;45073;52.740;6.784;2023-06-10T12:50:44;30.00;40.30
59301;DHT22;45073;52.740;6.784;2023-06-10T12:53:11;30.10;39.80
59301;DHT22;45073;52.740;6.784;2023-06-10T12:55:37;30.20;40.30
59301;DHT22;45073;52.740;6.784;2023-06-10T12:58:03;30.30;40.90
59301;DHT22;45073;52.740;6.784;2023-06-10T13:00:29;30.40;38.80
59301;DHT22;45073;52.740;6.784;2023-06-10T13:03:00;30.50;38.00
59301;DHT22;45073;52.740;6.784;2023-06-10T13:05:27;30.50;36.90
59301;DHT22;45073;52.740;6.784;2023-06-10T13:07:54;30.60;36.30
59301;DHT22;45073;52.740;6.784;2023-06-10T13:10:21;30.60;36.60
59301;DHT22;45073;52.740;6.784;2023-06-10T13:12:47;30.70;36.00
59301;DHT22;45073;52.740;6.784;2023-06-10T13:15:13;30.80;36.80
59301;DHT22;45073;52.740;6.784;2023-06-10T13:17:39;30.90;36.90
59301;DHT22;45073;52.740;6.784;2023-06-10T13:20:06;30.90;37.10
59301;DHT22;45073;52.740;6.784;2023-06-10T13:22:33;31.00;38.00
59301;DHT22;45073;52.740;6.784;2023-06-10T13:25:00;31.00;37.20
59301;DHT22;45073;52.740;6.784;2023-06-10T13:27:26;31.00;37.90
59301;DHT22;45073;52.740;6.784;2023-06-10T13:29:52;31.00;39.20
59301;DHT22;45073;52.740;6.784;2023-06-10T13:32:18;31.10;39.00
59301;DHT22;45073;52.740;6.784;2023-06-10T13:34:44;31.10;37.90
59301;DHT22;45073;52.740;6.784;2023-06-10T13:37:09;31.10;38.50
59301;DHT22;45073;52.740;6.784;2023-06-10T13:39:35;31.20;38.40
59301;DHT22;45073;52.740;6.784;2023-06-10T13:42:01;31.20;38.00
59301;DHT22;45073;52.740;6.784;2023-06-10T13:44:27;31.30;38.90
59301;DHT22;45073;52.740;6.784;2023-06-10T13:46:56;31.40;38.30
59301;DHT22;45073;52.740;6.784;2023-06-10T13:49:21;31.50;37.30
59301;DHT22;45073;52.740;6.784;2023-06-10T13:51:47;31.40;37.40
59301;DHT22;45073;52.740;6.784;2023-06-10T13:54:14;31.50;37.80
59301;DHT22;45073;52.740;6.784;2023-06-10T13:56:41;31.60;38.00
59301;DHT22;45073;52.740;6.784;2023-06-10T13:59:06;31.70;37.40
59301;DHT22;45073;52.740;6.784;2023-06-10T14:01:32;31.70;36.90
59301;DHT22;45073;52.740;6.784;2023-06-10T14:03:58;31.70;36.80
59301;DHT22;45073;52.740;6.784;2023-06-10T14:06:24;31.70;36.20
59301;DHT22;45073;52.740;6.784;2023-06-10T14:08:49;31.70;35.60
59301;DHT22;45073;52.740;6.784;2023-06-10T14:11:15;31.70;34.70
59301;DHT22;45073;52.740;6.784;2023-06-10T14:13:41;31.70;34.10
59301;DHT22;45073;52.740;6.784;2023-06-10T14:16:06;31.70;34.10
59301;DHT22;45073;52.740;6.784;2023-06-10T14:18:32;31.60;34.40
59301;DHT22;45073;52.740;6.784;2023-06-10T14:20:58;31.70;34.60
59301;DHT22;45073;52.740;6.784;2023-06-10T14:23:23;31.80;35.00
59301;DHT22;45073;52.740;6.784;2023-06-10T14:25:50;31.80;34.90
59301;DHT22;45073;52.740;6.784;2023-06-10T14:28:16;31.80;34.90
59301;DHT22;45073;52.740;6.784;2023-06-10T14:30:42;31.80;34.10
59301;DHT22;45073;52.740;6.784;2023-06-10T14:33:07;31.70;34.20
59301;DHT22;45073;52.740;6.784;2023-06-10T14:35:33;31.70;33.70
59301;DHT22;45073;52.740;6.784;2023-06-10T14:37:59;31.80;33.40
59301;DHT22;45073;52.740;6.784;2023-06-10T14:40:24;31.80;34.20
59301;DHT22;45073;52.740;6.784;2023-06-10T14:42:51;31.80;35.00
59301;DHT22;45073;52.740;6.784;2023-06-10T14:45:17;31.80;34.10
59301;DHT22;45073;52.740;6.784;2023-06-10T14:47:43;31.80;33.70
59301;DHT22;45073;52.740;6.784;2023-06-10T14:50:09;31.80;32.30
59301;DHT22;45073;52.740;6.784;2023-06-10T14:52:34;31.90;32.70
59301;DHT22;45073;52.740;6.784;2023-06-10T14:55:00;31.90;33.20
59301;DHT22;45073;52.740;6.784;2023-06-10T14:57:25;32.00;34.30
59301;DHT22;45073;52.740;6.784;2023-06-10T14:59:51;32.00;33.50
59301;DHT22;45073;52.740;6.784;2023-06-10T15:02:17;31.90;33.30
59301;DHT22;45073;52.740;6.784;2023-06-10T15:04:42;31.80;33.00
59301;DHT22;45073;52.740;6.784;2023-06-10T15:07:08;31.80;32.50
59301;DHT22;45073;52.740;6.784;2023-06-10T15:09:33;31.70;33.70
59301;DHT22;45073;52.740;6.784;2023-06-10T15:11:59;31.70;34.00
59301;DHT22;45073;52.740;6.784;2023-06-10T15:14:25;31.70;33.60
59301;DHT22;45073;52.740;6.784;2023-06-10T15:16:51;31.70;32.80
59301;DHT22;45073;52.740;6.784;2023-06-10T15:19:17;31.80;33.30
59301;DHT22;45073;52.740;6.784;2023-06-10T15:21:42;31.70;33.60
59301;DHT22;45073;52.740;6.784;2023-06-10T15:24:08;31.70;33.30
59301;DHT22;45073;52.740;6.784;2023-06-10T15:26:34;31.70;33.10
59301;DHT22;45073;52.740;6.784;2023-06-10T15:29:00;31.60;33.10
59301;DHT22;45073;52.740;6.784;2023-06-10T15:31:30;31.50;33.20
59301;DHT22;45073;52.740;6.784;2023-06-10T15:33:57;31.50;33.10
59301;DHT22;45073;52.740;6.784;2023-06-10T15:36:24;31.50;33.00
59301;DHT22;45073;52.740;6.784;2023-06-10T15:38:49;31.40;33.40
59301;DHT22;45073;52.740;6.784;2023-06-10T15:41:15;31.40;33.50
59301;DHT22;45073;52.740;6.784;2023-06-10T15:43:41;31.40;33.50
59301;DHT22;45073;52.740;6.784;2023-06-10T15:46:07;31.30;33.30